Manilla, Iowa
Current Conditions -  °F | °C
As of 4:15 PM on Sunday 25 Jan 2015 (Local Time) from KDNS Reporting Station
Scattered Clouds Scattered Clouds  
Wind Chill: 26°   Ceiling: Unl
Heat Index: 34°   Visibility: 10mi
Dew Point: 30°   Wind: 9mph
Humidity: 87%   Direction: 20°NNE
Pressure: 30.02"   Gusts: NA
Location:  41.89°N, 95.23°W
Report Text: KDNS 252215Z AUTO 02008KT 10SM SCT023 01/M01 A3002 RMK AO2
Loading
Personal Weather Stations






























Interactive Weather Map New forecast layout! Learn more

10-Day Weather Forecast

Advertisements
Track Severe Weather on mobile